Terminal Aerodrome Forecast
Issued by NWS Jacksonville, FL

Home | Current Version | Previous Version | Text Only | Print | Product List | Glossary On
Versions: 1 2 3 4 5 6 7 8 9 10 11 12 13 14 15 16 17
780
FTUS42 KJAX 241120
TAFGNV
TAF
KGNV 241120Z 2412/2512 04005KT P6SM SKC
     FM241300 08008KT P6SM FEW040
     FM241600 10012G20KT P6SM SCT040 BKN060
     FM250000 08007KT P6SM FEW040 SCT060 SCT250=

USA.gov is the U.S. government's official web portal to all federal, state and local government web resources and services.